KMOD/MOD METAR and TAF weather

Enter ICAO airport designator
Station Type Date Time Source
KMOD METAR 2020/07/11 00:53 UTC NOAA

KMOD 110053Z 33008KT 10SM FEW110 36/07 A2990 RMK AO2 SLP123 T03560072


Station Type Date Time Source
KMOD Decoded METAR 2020/07/11 00:53 UTC NOAA

MODESTO CITY CO SHAM FLD, CA, United States (KMOD) 37-37N 120-57W 29M
Jul 10, 2020 - 08:53 PM EDT / 2020.07.11 0053 UTC
Wind: from the NNW (330 degrees) at 9 MPH (8 KT):0
Visibility: 10 mile(s):0
Sky conditions: mostly clear
Temperature: 96.1 F (35.6 C)
Dew Point: 45.0 F (7.2 C)
Relative Humidity: 17%
Pressure (altimeter): 29.9 in. Hg (1012 hPa)
ob: KMOD 110053Z 33008KT 10SM FEW110 36/07 A2990 RMK AO2 SLP123 T03560072
cycle: 1

Station Type Date Time Source
KMOD TAF 2020/07/10 18:42 UTC NOAA

TAF KMOD 101736Z 1018/1118 32009KT P6SM FEW250
FM110800 35004KT P6SM SKC

Example: see airport list